createdAt,value
2019-04-25T00:02:05.646Z,97447.23
2019-04-25T00:04:35.126Z,97448.66
2019-04-25T00:07:04.646Z,97445.53
2019-04-25T00:09:37.526Z,97440.34
2019-04-25T00:12:07.396Z,97436.03
2019-04-25T00:14:38.003Z,97442.08
2019-04-25T00:17:07.632Z,97429.55
2019-04-25T00:19:37.018Z,97424.13
2019-04-25T00:22:13.880Z,97418.14
2019-04-25T00:24:52.041Z,97424.84
2019-04-25T00:27:23.761Z,97417.52
2019-04-25T00:29:53.378Z,97414.98
2019-04-25T00:32:23.177Z,97410.05
2019-04-25T00:34:52.854Z,97406.48
2019-04-25T00:37:22.609Z,97393.75
2019-04-25T00:39:52.098Z,97383.86
2019-04-25T00:42:23.125Z,97363.37
2019-04-25T00:44:52.637Z,97366.67
2019-04-25T00:47:22.276Z,97379.62
2019-04-25T00:49:52.407Z,97393.20
2019-04-25T00:52:22.876Z,97401.39
2019-04-25T00:54:53.463Z,97394.88
2019-04-25T00:57:23.520Z,97397.62
2019-04-25T00:59:57.242Z,97393.83
2019-04-25T01:02:37.213Z,97404.05
2019-04-25T01:05:07.628Z,97399.61
2019-04-25T01:07:37.098Z,97401.89
2019-04-25T01:10:08.555Z,97398.28
2019-04-25T01:12:37.950Z,97412.45
2019-04-25T01:15:09.412Z,97413.77
2019-04-25T01:17:38.872Z,97422.48
2019-04-25T01:20:08.861Z,97427.06
2019-04-25T01:22:38.255Z,97423.20
2019-04-25T01:25:09.679Z,97420.27
2019-04-25T01:27:39.229Z,97422.97
2019-04-25T01:30:09.833Z,97423.81
2019-04-25T01:32:39.276Z,97425.52
2019-04-25T01:35:27.056Z,97421.91
2019-04-25T01:37:58.082Z,97428.31
2019-04-25T01:40:29.272Z,97435.23
2019-04-25T01:43:00.444Z,97436.38
2019-04-25T01:45:33.838Z,97427.95
2019-04-25T01:48:03.580Z,97429.98
2019-04-25T01:50:35.265Z,97435.06
2019-04-25T01:53:05.060Z,97429.33
2019-04-25T01:55:35.733Z,97428.14
2019-04-25T01:58:07.200Z,97418.42
2019-04-25T02:00:47.578Z,97422.71
2019-04-25T02:03:17.145Z,97422.46
2019-04-25T02:05:46.531Z,97417.22
2019-04-25T02:08:16.019Z,97421.38
2019-04-25T02:10:47.042Z,97421.92
2019-04-25T02:13:20.840Z,97415.03
2019-04-25T02:15:50.666Z,97424.19
2019-04-25T02:18:20.887Z,97429.97
2019-04-25T02:20:51.549Z,97428.10
2019-04-25T02:23:21.705Z,97420.98
2019-04-25T02:26:04.625Z,97422.54
2019-04-25T02:28:23.999Z,97431.00
2019-04-25T02:30:57.367Z,97422.89
2019-04-25T02:33:24.739Z,97424.20
2019-04-25T02:35:57.864Z,97413.05
2019-04-25T02:38:29.141Z,97424.44
2019-04-25T02:41:01.986Z,97427.98
2019-04-25T02:43:31.336Z,97419.36
2019-04-25T02:46:11.888Z,97415.33
2019-04-25T02:49:02.398Z,97419.53
2019-04-25T02:51:45.253Z,97420.05
2019-04-25T02:54:14.973Z,97401.33
2019-04-25T02:56:46.640Z,97410.44
2019-04-25T02:59:15.498Z,97407.72
2019-04-25T03:01:46.003Z,97403.30
2019-04-25T03:04:15.385Z,97414.09
2019-04-25T03:06:45.464Z,97404.84
2019-04-25T03:09:15.613Z,97407.79
2019-04-25T03:11:47.573Z,97415.96
2019-04-25T03:14:16.302Z,97404.56
2019-04-25T03:16:45.756Z,97412.27
2019-04-25T03:19:16.792Z,97408.23
2019-04-25T03:21:51.158Z,97408.23
2019-04-25T03:24:20.621Z,97407.71
2019-04-25T03:26:50.539Z,97412.13
2019-04-25T03:29:21.802Z,97421.56
2019-04-25T03:31:52.333Z,97422.91
2019-04-25T03:34:25.081Z,97428.31
2019-04-25T03:36:54.053Z,97437.07
2019-04-25T03:39:27.061Z,97440.09
2019-04-25T03:41:56.513Z,97447.03
2019-04-25T03:44:25.922Z,97454.29
2019-04-25T03:46:55.312Z,97459.83
2019-04-25T03:49:25.090Z,97461.27
2019-04-25T03:51:54.555Z,97466.20
2019-04-25T03:54:23.945Z,97465.50
2019-04-25T03:56:55.605Z,97468.48
2019-04-25T03:59:24.447Z,97469.98
2019-04-25T04:01:54.293Z,97462.66
2019-04-25T04:04:23.882Z,97463.59
2019-04-25T04:06:53.873Z,97465.63
2019-04-25T04:09:24.173Z,97472.72
2019-04-25T04:11:53.996Z,97473.79
2019-04-25T04:14:24.228Z,97477.80
2019-04-25T04:17:14.698Z,97482.85
2019-04-25T04:22:45.716Z,97494.25
2019-04-25T04:25:16.763Z,97482.93
2019-04-25T04:27:46.162Z,97477.20
2019-04-25T04:30:16.495Z,97486.06
2019-04-25T04:32:46.846Z,97480.52
2019-04-25T04:35:17.480Z,97487.52
2019-04-25T04:37:47.019Z,97482.38
2019-04-25T04:40:18.277Z,97481.23
2019-04-25T04:42:47.523Z,97481.23
2019-04-25T04:45:16.995Z,97480.33
2019-04-25T04:47:46.390Z,97480.28
2019-04-25T04:50:16.620Z,97480.03
2019-04-25T04:52:46.193Z,97486.02
2019-04-25T04:55:17.223Z,97481.00
2019-04-25T04:57:46.673Z,97490.55
2019-04-25T05:00:16.847Z,97495.09
2019-04-25T05:02:50.363Z,97501.05
2019-04-25T05:05:23.152Z,97505.62
2019-04-25T05:07:54.194Z,97517.80
2019-04-25T05:10:24.563Z,97513.73
2019-04-25T05:12:54.062Z,97513.73
2019-04-25T05:15:24.828Z,97508.68
2019-04-25T05:17:54.431Z,97503.96
2019-04-25T05:20:24.286Z,97509.33
2019-04-25T05:22:54.914Z,97505.56
2019-04-25T05:25:24.896Z,97504.88
2019-04-25T05:28:02.883Z,97514.23
2019-04-25T05:30:40.303Z,97516.69
2019-04-25T05:33:09.708Z,97511.69
2019-04-25T05:35:39.098Z,97526.13
2019-04-25T05:38:08.488Z,97536.02
2019-04-25T05:40:39.532Z,97534.78
2019-04-25T05:43:10.627Z,97528.75
2019-04-25T05:45:40.084Z,97522.64
2019-04-25T05:48:09.472Z,97522.92
2019-04-25T05:50:38.886Z,97528.50
2019-04-25T05:53:08.308Z,97519.23
2019-04-25T05:55:37.695Z,97525.25
2019-04-25T05:58:07.099Z,97517.80
2019-04-25T06:00:36.481Z,97509.23
2019-04-25T06:03:05.883Z,97509.74
2019-04-25T06:05:35.343Z,97514.03
2019-04-25T06:08:05.039Z,97517.36
2019-04-25T06:10:36.623Z,97522.05
2019-04-25T06:13:13.778Z,97521.21
2019-04-25T06:15:45.057Z,97519.66
2019-04-25T06:18:16.079Z,97514.66
2019-04-25T06:20:45.754Z,97521.59
2019-04-25T06:23:16.855Z,97522.84
2019-04-25T06:25:46.375Z,97519.03
2019-04-25T06:28:23.999Z,97517.54
2019-04-25T06:30:54.233Z,97526.13
2019-04-25T06:33:24.676Z,97517.38
2019-04-25T06:35:56.759Z,97521.62
2019-04-25T06:38:27.252Z,97516.53
2019-04-25T06:40:57.224Z,97515.94
2019-04-25T06:43:26.782Z,97518.12
2019-04-25T06:46:14.206Z,97519.71
2019-04-25T06:48:45.688Z,97524.99
2019-04-25T06:51:15.071Z,97521.80
2019-04-25T06:53:44.455Z,97533.38
2019-04-25T06:56:13.912Z,97530.66
2019-04-25T06:58:44.286Z,97528.94
2019-04-25T07:01:13.728Z,97521.91
2019-04-25T07:03:44.197Z,97521.55
2019-04-25T07:06:15.125Z,97519.07
2019-04-25T07:08:44.937Z,97518.90
2019-04-25T07:11:14.475Z,97518.83
2019-04-25T07:13:44.003Z,97526.22
2019-04-25T07:16:13.564Z,97516.15
2019-04-25T07:18:43.572Z,97514.81
2019-04-25T07:21:14.292Z,97514.56
2019-04-25T07:23:46.285Z,97514.78
2019-04-25T07:26:17.384Z,97511.84
2019-04-25T07:28:57.497Z,97515.44
2019-04-25T07:31:33.140Z,97506.23
2019-04-25T07:34:04.257Z,97510.95
2019-04-25T07:36:35.101Z,97510.20
2019-04-25T07:39:10.521Z,97504.97
2019-04-25T07:41:39.703Z,97506.16
2019-04-25T07:44:09.083Z,97504.53
2019-04-25T07:46:39.948Z,97505.39
2019-04-25T07:49:10.309Z,97509.47
2019-04-25T07:51:39.949Z,97505.31
2019-04-25T07:54:09.339Z,97503.16
2019-04-25T07:56:38.866Z,97504.80
2019-04-25T07:59:08.640Z,97507.58
2019-04-25T08:01:39.087Z,97502.32
2019-04-25T08:04:08.543Z,97502.06
2019-04-25T08:06:38.059Z,97497.46
2019-04-25T08:09:10.960Z,97507.08
2019-04-25T08:11:40.760Z,97507.14
2019-04-25T08:14:21.779Z,97503.26
2019-04-25T08:17:07.867Z,97499.73
2019-04-25T08:19:37.958Z,97505.59
2019-04-25T08:22:07.481Z,97503.59
2019-04-25T08:24:37.852Z,97502.54
2019-04-25T08:27:07.483Z,97497.49
2019-04-25T08:29:39.213Z,97501.34
2019-04-25T08:32:08.096Z,97485.54
2019-04-25T08:34:38.537Z,97497.11
2019-04-25T08:37:18.130Z,97496.64
2019-04-25T08:39:41.815Z,97492.25
2019-04-25T08:42:11.198Z,97495.61
2019-04-25T08:44:41.352Z,97496.59
2019-04-25T08:47:10.855Z,97492.63
2019-04-25T08:49:44.126Z,97493.20
2019-04-25T08:52:13.291Z,97505.71
2019-04-25T08:54:47.176Z,97511.83
2019-04-25T08:57:19.707Z,97509.05
2019-04-25T08:59:55.597Z,97500.69
2019-04-25T09:02:38.947Z,97499.52
2019-04-25T09:05:24.394Z,97494.81
2019-04-25T09:07:54.385Z,97495.88
2019-04-25T09:10:24.303Z,97483.17
2019-04-25T09:12:53.891Z,97492.86
2019-04-25T09:15:24.202Z,97484.05
2019-04-25T09:17:54.902Z,97484.05
2019-04-25T09:20:24.521Z,97480.31
2019-04-25T09:22:54.377Z,97478.75
2019-04-25T09:25:24.208Z,97476.25
2019-04-25T09:27:54.374Z,97476.25
2019-04-25T09:30:24.256Z,97473.98
2019-04-25T09:32:53.758Z,97472.68
2019-04-25T09:35:23.739Z,97465.22
2019-04-25T09:37:54.244Z,97470.20
2019-04-25T09:40:24.124Z,97466.30
2019-04-25T09:42:53.882Z,97459.77
2019-04-25T09:45:41.556Z,97460.02
2019-04-25T09:48:13.282Z,97478.48
2019-04-25T09:50:45.421Z,97472.69
2019-04-25T09:53:23.617Z,97464.78
2019-04-25T09:55:54.152Z,97458.05
2019-04-25T09:58:28.548Z,97466.02
2019-04-25T10:01:13.772Z,97458.43
2019-04-25T10:03:45.413Z,97454.48
2019-04-25T10:06:17.910Z,97459.22
2019-04-25T10:08:47.533Z,97456.89
2019-04-25T10:11:17.508Z,97467.98
2019-04-25T10:14:08.345Z,97460.34
2019-04-25T10:16:37.956Z,97461.84
2019-04-25T10:19:08.431Z,97464.81
2019-04-25T10:21:38.075Z,97459.19
2019-04-25T10:24:07.557Z,97454.47
2019-04-25T10:26:38.592Z,97450.00
2019-04-25T10:29:09.247Z,97453.02
2019-04-25T10:31:38.804Z,97455.91
2019-04-25T10:34:08.265Z,97460.09
2019-04-25T10:36:39.884Z,97450.52
2019-04-25T10:39:11.121Z,97456.50
2019-04-25T10:41:41.395Z,97447.08
2019-04-25T10:44:14.007Z,97445.24
2019-04-25T10:46:46.843Z,97444.81
2019-04-25T10:49:14.619Z,97435.17
2019-04-25T10:51:45.806Z,97442.67
2019-04-25T10:54:15.275Z,97434.67
2019-04-25T10:56:46.867Z,97433.48
2019-04-25T10:59:15.877Z,97431.89
2019-04-25T11:01:46.374Z,97430.96
2019-04-25T11:04:20.321Z,97427.59
2019-04-25T11:06:49.789Z,97421.41
2019-04-25T11:09:21.745Z,97420.30
2019-04-25T11:11:51.208Z,97415.86
2019-04-25T11:14:20.734Z,97413.70
2019-04-25T11:16:50.438Z,97415.91
2019-04-25T11:19:19.941Z,97409.30
2019-04-25T11:21:49.457Z,97403.78
2019-04-25T11:24:19.120Z,97396.42
2019-04-25T11:26:50.455Z,97388.77
2019-04-25T11:29:19.767Z,97389.46
2019-04-25T11:31:49.397Z,97387.95
2019-04-25T11:34:19.024Z,97395.09
2019-04-25T11:36:48.511Z,97403.80
2019-04-25T11:39:36.838Z,97403.80
2019-04-25T11:42:08.143Z,97404.67
2019-04-25T11:44:38.056Z,97396.53
2019-04-25T11:47:08.662Z,97399.03
2019-04-25T11:49:38.789Z,97394.20
2019-04-25T11:52:09.111Z,97400.17
2019-04-25T11:54:39.287Z,97394.05
2019-04-25T11:57:09.074Z,97398.98
2019-04-25T11:59:39.105Z,97397.09
2019-04-25T12:02:10.816Z,97396.00
2019-04-25T12:04:39.482Z,97397.11
2019-04-25T12:07:09.758Z,97386.84
2019-04-25T12:09:39.237Z,97376.03
2019-04-25T12:12:08.715Z,97384.91
2019-04-25T12:14:38.592Z,97397.10
2019-04-25T12:17:08.925Z,97390.17
2019-04-25T12:19:39.084Z,97376.27
2019-04-25T12:22:09.323Z,97379.56
2019-04-25T12:24:39.424Z,97381.20
2019-04-25T12:27:09.307Z,97365.79
2019-04-25T12:29:39.280Z,97377.59
2019-04-25T12:32:09.608Z,97367.44
2019-04-25T12:34:39.313Z,97363.21
2019-04-25T12:37:09.435Z,97364.67
2019-04-25T12:39:39.458Z,97347.71
2019-04-25T12:42:09.709Z,97348.50
2019-04-25T12:44:46.255Z,97352.27
2019-04-25T12:47:16.782Z,97350.50
2019-04-25T12:49:46.723Z,97353.80
2019-04-25T12:52:16.128Z,97351.61
2019-04-25T12:54:45.526Z,97354.97
2019-04-25T12:57:16.155Z,97338.84
2019-04-25T12:59:46.200Z,97336.28
2019-04-25T13:02:16.982Z,97330.78
2019-04-25T13:04:47.621Z,97323.07
2019-04-25T13:07:18.145Z,97315.08
2019-04-25T13:09:48.319Z,97316.55
2019-04-25T13:12:19.997Z,97316.11
2019-04-25T13:14:49.626Z,97320.56
2019-04-25T13:17:19.031Z,97304.77
2019-04-25T13:19:48.526Z,97305.91
2019-04-25T13:22:17.885Z,97309.47
2019-04-25T13:24:47.350Z,97310.01
2019-04-25T13:27:34.359Z,97309.48
2019-04-25T13:30:24.143Z,97305.01
2019-04-25T13:32:55.546Z,97310.53
2019-04-25T13:35:34.343Z,97297.55
2019-04-25T13:38:03.868Z,97299.05
2019-04-25T13:40:33.328Z,97297.50
2019-04-25T13:43:04.558Z,97298.36
2019-04-25T13:45:33.958Z,97297.80
2019-04-25T13:48:04.905Z,97283.16
2019-04-25T13:50:34.751Z,97281.45
2019-04-25T13:53:04.155Z,97273.98
2019-04-25T13:55:34.506Z,97267.87
2019-04-25T13:58:04.338Z,97271.92
2019-04-25T14:00:34.868Z,97268.72
2019-04-25T14:03:04.572Z,97260.11
2019-04-25T14:05:35.339Z,97259.43
2019-04-25T14:08:04.854Z,97262.20
2019-04-25T14:10:34.477Z,97259.02
2019-04-25T14:13:04.348Z,97264.71
2019-04-25T14:15:35.152Z,97254.86
2019-04-25T14:18:22.896Z,97253.59
2019-04-25T14:20:54.013Z,97258.73
2019-04-25T14:23:24.525Z,97252.97
2019-04-25T14:25:54.822Z,97247.64
2019-04-25T14:28:25.245Z,97254.45
2019-04-25T14:30:55.421Z,97251.14
2019-04-25T14:33:26.586Z,97245.63
2019-04-25T14:35:55.978Z,97241.92
2019-04-25T14:38:26.544Z,97241.92
2019-04-25T14:40:57.000Z,97237.55
2019-04-25T14:43:26.416Z,97244.06
2019-04-25T14:45:56.373Z,97248.75
2019-04-25T14:48:25.852Z,97243.66
2019-04-25T14:50:55.347Z,97239.63
2019-04-25T14:53:25.753Z,97248.92
2019-04-25T14:55:56.831Z,97238.26
2019-04-25T14:58:28.198Z,97236.45
2019-04-25T15:00:57.705Z,97234.72
2019-04-25T15:03:27.178Z,97230.88
2019-04-25T15:05:56.572Z,97226.65
2019-04-25T15:08:26.562Z,97230.69
2019-04-25T15:10:57.010Z,97231.94
2019-04-25T15:13:26.407Z,97223.33
2019-04-25T15:15:56.989Z,97228.57
2019-04-25T15:18:26.943Z,97225.31
2019-04-25T15:20:57.192Z,97219.80
2019-04-25T15:23:27.320Z,97222.11
2019-04-25T15:25:56.821Z,97219.05
2019-04-25T15:28:26.208Z,97230.85
2019-04-25T15:30:55.613Z,97231.59
2019-04-25T15:33:26.408Z,97222.95
2019-04-25T15:36:03.712Z,97223.63
2019-04-25T15:38:40.803Z,97218.87
2019-04-25T15:41:14.798Z,97223.88
2019-04-25T15:43:49.591Z,97230.66
2019-04-25T15:46:20.754Z,97226.24
2019-04-25T15:48:50.160Z,97227.11
2019-04-25T15:51:19.551Z,97229.27
2019-04-25T15:53:48.940Z,97238.84
2019-04-25T15:56:18.414Z,97242.30
2019-04-25T15:58:47.873Z,97235.80
2019-04-25T16:01:17.344Z,97248.17
2019-04-25T16:03:46.731Z,97241.98
2019-04-25T16:06:16.194Z,97249.84
2019-04-25T16:08:45.929Z,97248.30
2019-04-25T16:11:15.377Z,97250.45
2019-04-25T16:13:45.438Z,97241.75
2019-04-25T16:16:15.397Z,97246.98
2019-04-25T16:18:45.384Z,97241.52
2019-04-25T16:21:15.579Z,97244.09
2019-04-25T16:23:45.525Z,97242.77
2019-04-25T16:26:15.355Z,97251.65
2019-04-25T16:28:45.374Z,97242.89
2019-04-25T16:31:17.033Z,97252.73
2019-04-25T16:33:46.416Z,97259.34
2019-04-25T16:36:15.823Z,97265.59
2019-04-25T16:38:45.475Z,97267.13
2019-04-25T16:41:15.530Z,97278.17
2019-04-25T16:43:52.804Z,97272.25
2019-04-25T16:46:23.082Z,97274.38
2019-04-25T16:48:52.534Z,97268.64
2019-04-25T16:51:22.200Z,97265.70
2019-04-25T16:53:51.727Z,97268.17
2019-04-25T16:56:21.177Z,97272.80
2019-04-25T16:58:51.535Z,97268.23
2019-04-25T17:01:21.089Z,97274.97
2019-04-25T17:03:50.542Z,97274.75
2019-04-25T17:06:19.922Z,97284.01
2019-04-25T17:08:49.306Z,97278.54
2019-04-25T17:11:18.971Z,97290.33
2019-04-25T17:13:49.995Z,97290.59
2019-04-25T17:16:21.009Z,97302.69
2019-04-25T17:18:54.930Z,97305.17
2019-04-25T17:21:24.540Z,97310.55
2019-04-25T17:23:54.016Z,97310.78
2019-04-25T17:26:24.237Z,97310.78
2019-04-25T17:28:55.397Z,97311.21
2019-04-25T17:31:43.434Z,97315.08
2019-04-25T17:34:17.050Z,97325.37
2019-04-25T17:36:51.027Z,97328.19
2019-04-25T17:39:31.140Z,97329.58
2019-04-25T17:42:01.523Z,97323.28
2019-04-25T17:44:31.638Z,97328.05
2019-04-25T17:47:06.460Z,97335.45
2019-04-25T17:49:33.016Z,97337.62
2019-04-25T17:52:02.403Z,97338.08
2019-04-25T17:54:32.756Z,97340.36
2019-04-25T17:57:02.445Z,97334.01
2019-04-25T17:59:32.320Z,97333.02
2019-04-25T18:02:03.088Z,97333.73
2019-04-25T18:04:34.037Z,97344.23
2019-04-25T18:07:04.715Z,97346.58
2019-04-25T18:09:34.450Z,97344.41
2019-04-25T18:12:05.177Z,97344.52
2019-04-25T18:14:35.214Z,97344.41
2019-04-25T18:17:04.942Z,97357.09
2019-04-25T18:19:36.414Z,97351.65
2019-04-25T18:22:07.405Z,97353.80
2019-04-25T18:24:54.701Z,97358.36
2019-04-25T18:27:37.769Z,97362.67
2019-04-25T18:30:07.770Z,97356.41
2019-04-25T18:32:39.150Z,97358.77
2019-04-25T18:35:10.308Z,97366.94
2019-04-25T18:37:48.620Z,97375.21
2019-04-25T18:40:19.981Z,97379.76
2019-04-25T18:42:51.016Z,97379.76
2019-04-25T18:45:27.651Z,97376.88
2019-04-25T18:47:57.041Z,97385.81
2019-04-25T18:50:28.124Z,97391.02
2019-04-25T18:53:17.514Z,97394.82
2019-04-25T18:55:48.668Z,97394.00
2019-04-25T18:58:35.676Z,97385.98
2019-04-25T19:01:13.072Z,97399.61
2019-04-25T19:03:49.903Z,97397.38
2019-04-25T19:06:21.538Z,97400.72
2019-04-25T19:08:53.234Z,97405.12
2019-04-25T19:11:22.485Z,97411.23
2019-04-25T19:13:51.941Z,97411.84
2019-04-25T19:16:21.333Z,97412.05
2019-04-25T19:18:51.600Z,97419.20
2019-04-25T19:21:21.607Z,97413.01
2019-04-25T19:23:51.512Z,97421.20
2019-04-25T19:26:21.985Z,97422.22
2019-04-25T19:28:52.032Z,97413.80
2019-04-25T19:31:22.352Z,97422.07
2019-04-25T19:33:52.586Z,97423.45
2019-04-25T19:36:23.004Z,97429.02
2019-04-25T19:38:53.058Z,97426.84
2019-04-25T19:41:27.919Z,97429.96
2019-04-25T19:43:59.294Z,97440.69
2019-04-25T19:46:39.079Z,97435.81
2019-04-25T19:49:08.897Z,97436.56
2019-04-25T19:51:39.742Z,97434.14
2019-04-25T19:54:09.125Z,97435.48
2019-04-25T19:56:38.578Z,97434.70
2019-04-25T19:59:08.113Z,97428.42
2019-04-25T20:01:37.561Z,97425.08
2019-04-25T20:04:14.539Z,97420.59
2019-04-25T20:07:02.265Z,97414.19
2019-04-25T20:09:49.409Z,97415.13
2019-04-25T20:12:19.363Z,97417.78
2019-04-25T20:14:49.219Z,97431.22
2019-04-25T20:17:18.609Z,97425.30
2019-04-25T20:19:48.457Z,97424.11
2019-04-25T20:22:18.565Z,97436.32
2019-04-25T20:24:48.886Z,97430.80
2019-04-25T20:27:18.551Z,97425.84
2019-04-25T20:29:48.586Z,97425.60
2019-04-25T20:32:18.747Z,97433.41
2019-04-25T20:34:49.049Z,97432.98
2019-04-25T20:37:18.870Z,97435.50
2019-04-25T20:39:49.417Z,97438.02
2019-04-25T20:42:18.877Z,97423.33
2019-04-25T20:44:49.611Z,97426.49
2019-04-25T20:47:19.957Z,97421.81
2019-04-25T20:49:49.368Z,97438.86
2019-04-25T20:52:18.991Z,97436.67
2019-04-25T20:54:49.350Z,97439.62
2019-04-25T20:57:19.023Z,97445.59
2019-04-25T20:59:49.345Z,97445.16
2019-04-25T21:02:19.160Z,97451.66
2019-04-25T21:04:50.063Z,97454.83
2019-04-25T21:07:19.453Z,97447.04
2019-04-25T21:09:49.929Z,97437.22
2019-04-25T21:12:19.455Z,97432.40
2019-04-25T21:14:59.570Z,97441.25
2019-04-25T21:17:36.617Z,97434.58
2019-04-25T21:20:11.221Z,97442.09
2019-04-25T21:22:41.862Z,97437.61
2019-04-25T21:25:11.403Z,97439.83
2019-04-25T21:27:40.877Z,97430.53
2019-04-25T21:30:11.386Z,97436.44
2019-04-25T21:32:53.667Z,97437.00
2019-04-25T21:35:23.924Z,97438.68
2019-04-25T21:37:53.600Z,97434.99
2019-04-25T21:40:27.289Z,97438.39
2019-04-25T21:43:01.086Z,97440.16
2019-04-25T21:45:30.744Z,97443.58
2019-04-25T21:48:00.789Z,97428.98
2019-04-25T21:50:31.357Z,97432.98
2019-04-25T21:53:01.301Z,97425.77
2019-04-25T21:55:31.053Z,97431.16
2019-04-25T21:58:00.606Z,97419.64
2019-04-25T22:00:37.393Z,97416.34
2019-04-25T22:03:09.009Z,97427.84
2019-04-25T22:05:38.716Z,97434.91
2019-04-25T22:08:08.280Z,97437.47
2019-04-25T22:10:37.656Z,97439.81
2019-04-25T22:13:14.864Z,97440.84
2019-04-25T22:15:38.427Z,97438.88
2019-04-25T22:18:08.013Z,97434.09
2019-04-25T22:20:37.451Z,97431.92
2019-04-25T22:23:07.183Z,97435.11
2019-04-25T22:25:36.907Z,97424.79
2019-04-25T22:28:07.553Z,97431.38
2019-04-25T22:30:37.671Z,97416.12
2019-04-25T22:33:14.664Z,97418.54
2019-04-25T22:35:48.650Z,97421.38
2019-04-25T22:38:18.316Z,97415.47
2019-04-25T22:40:47.775Z,97417.30
2019-04-25T22:43:17.312Z,97418.70
2019-04-25T22:45:46.879Z,97423.95
2019-04-25T22:48:17.909Z,97423.95
2019-04-25T22:50:47.466Z,97424.55
2019-04-25T22:53:22.717Z,97427.44
2019-04-25T22:55:48.901Z,97435.22
2019-04-25T22:58:18.359Z,97435.14
2019-04-25T23:00:47.814Z,97445.88
2019-04-25T23:03:23.407Z,97442.84
2019-04-25T23:05:54.490Z,97443.69
2019-04-25T23:08:24.193Z,97435.02
2019-04-25T23:10:53.564Z,97433.84
2019-04-25T23:13:22.951Z,97437.80
2019-04-25T23:15:52.429Z,97441.88
2019-04-25T23:18:22.192Z,97440.31
2019-04-25T23:20:51.590Z,97432.56
2019-04-25T23:23:21.192Z,97437.17
2019-04-25T23:25:55.787Z,97435.03
2019-04-25T23:28:27.082Z,97439.46
2019-04-25T23:30:58.337Z,97426.25
2019-04-25T23:33:28.681Z,97422.57
2019-04-25T23:35:58.350Z,97418.80
2019-04-25T23:38:27.796Z,97420.30
2019-04-25T23:40:57.182Z,97417.78
2019-04-25T23:43:26.758Z,97416.06
2019-04-25T23:45:56.312Z,97408.05
2019-04-25T23:48:25.896Z,97410.79
2019-04-25T23:50:55.277Z,97422.51
2019-04-25T23:53:24.663Z,97422.25
2019-04-25T23:55:54.126Z,97415.23
2019-04-25T23:58:23.517Z,97409.20
